createdAt,value
2018-09-09T00:00:10.886Z,10.37
2018-09-09T00:02:39.334Z,8.50
2018-09-09T00:05:07.802Z,8.80
2018-09-09T00:07:36.263Z,10.23
2018-09-09T00:10:04.923Z,12.27
2018-09-09T00:12:33.391Z,8.13
2018-09-09T00:15:01.850Z,9.07
2018-09-09T00:17:30.294Z,9.97
2018-09-09T00:19:58.747Z,13.23
2018-09-09T00:22:27.205Z,9.23
2018-09-09T00:24:55.642Z,7.70
2018-09-09T00:27:24.108Z,9.30
2018-09-09T00:29:52.571Z,10.20
2018-09-09T00:32:21.026Z,11.50
2018-09-09T00:34:49.477Z,9.87
2018-09-09T00:37:17.958Z,10.37
2018-09-09T00:39:46.455Z,9.83
2018-09-09T00:42:14.910Z,10.90
2018-09-09T00:44:43.379Z,9.10
2018-09-09T00:47:11.846Z,12.00
2018-09-09T00:49:45.730Z,9.23
2018-09-09T00:52:19.330Z,10.03
2018-09-09T00:54:47.787Z,13.60
2018-09-09T00:57:16.247Z,10.33
2018-09-09T00:59:44.727Z,13.23
2018-09-09T01:02:13.211Z,14.80
2018-09-09T01:04:41.679Z,11.23
2018-09-09T01:07:10.139Z,9.13
2018-09-09T01:09:38.604Z,11.90
2018-09-09T01:12:07.083Z,15.13
2018-09-09T01:14:35.670Z,10.87
2018-09-09T01:17:04.198Z,14.30
2018-09-09T01:19:32.675Z,13.80
2018-09-09T01:22:01.151Z,11.53
2018-09-09T01:24:29.654Z,13.80
2018-09-09T01:26:58.110Z,11.53
2018-09-09T01:29:26.594Z,10.93
2018-09-09T01:31:55.066Z,19.80
2018-09-09T01:34:23.530Z,13.40
2018-09-09T01:36:52.011Z,12.63
2018-09-09T01:39:20.514Z,9.63
2018-09-09T01:41:49.004Z,14.23
2018-09-09T01:44:17.459Z,9.90
2018-09-09T01:46:45.931Z,10.13
2018-09-09T01:49:14.406Z,12.03
2018-09-09T01:51:42.863Z,8.40
2018-09-09T01:54:11.311Z,11.83
2018-09-09T01:56:39.771Z,9.93
2018-09-09T01:59:08.218Z,12.20
2018-09-09T02:01:36.691Z,12.17
2018-09-09T02:04:05.162Z,11.73
2018-09-09T02:06:33.667Z,10.50
2018-09-09T02:09:02.167Z,15.93
2018-09-09T02:11:30.699Z,12.23
2018-09-09T02:13:59.171Z,9.63
2018-09-09T02:16:27.644Z,11.17
2018-09-09T02:18:56.095Z,8.43
2018-09-09T02:21:24.553Z,8.37
2018-09-09T02:23:53.061Z,11.20
2018-09-09T02:26:21.510Z,9.33
2018-09-09T02:28:49.975Z,9.80
2018-09-09T02:31:18.446Z,15.20
2018-09-09T02:33:46.918Z,10.87
2018-09-09T02:36:15.392Z,9.70
2018-09-09T02:38:43.858Z,10.90
2018-09-09T02:41:12.364Z,11.70
2018-09-09T02:43:40.812Z,14.40
2018-09-09T02:46:09.271Z,13.03
2018-09-09T02:48:37.734Z,15.57
2018-09-09T02:51:06.474Z,12.30
2018-09-09T02:53:34.959Z,16.03
2018-09-09T02:56:07.645Z,11.70
2018-09-09T02:58:36.102Z,13.10
2018-09-09T03:01:04.731Z,15.40
2018-09-09T03:03:33.207Z,11.17
2018-09-09T03:06:01.718Z,13.60
2018-09-09T03:08:31.522Z,11.37
2018-09-09T03:11:05.478Z,11.90
2018-09-09T03:13:33.963Z,16.70
2018-09-09T03:16:02.423Z,10.27
2018-09-09T03:18:30.894Z,12.53
2018-09-09T03:20:59.370Z,8.83
2018-09-09T03:23:28.760Z,10.63
2018-09-09T03:25:57.233Z,10.67
2018-09-09T03:28:25.761Z,10.30
2018-09-09T03:30:54.250Z,15.67
2018-09-09T03:33:22.728Z,10.13
2018-09-09T03:35:51.436Z,18.80
2018-09-09T03:38:20.250Z,11.27
2018-09-09T03:40:49.234Z,18.70
2018-09-09T03:43:17.691Z,11.27
2018-09-09T03:45:46.198Z,12.10
2018-09-09T03:48:14.666Z,10.70
2018-09-09T03:50:43.222Z,11.10
2018-09-09T03:53:11.682Z,11.07
2018-09-09T03:55:41.131Z,16.27
2018-09-09T03:58:09.591Z,15.97
2018-09-09T04:00:38.049Z,12.00
2018-09-09T04:03:07.194Z,11.63
2018-09-09T04:05:35.662Z,12.07
2018-09-09T04:08:04.142Z,13.40
2018-09-09T04:10:32.746Z,11.33
2018-09-09T04:13:01.198Z,10.63
2018-09-09T04:15:29.651Z,15.87
2018-09-09T04:17:58.132Z,13.77
2018-09-09T04:20:26.743Z,12.23
2018-09-09T04:22:55.207Z,11.50
2018-09-09T04:25:23.679Z,10.60
2018-09-09T04:27:52.143Z,12.73
2018-09-09T04:30:20.600Z,11.23
2018-09-09T04:32:49.050Z,11.40
2018-09-09T04:35:17.498Z,10.20
2018-09-09T04:37:45.950Z,13.83
2018-09-09T04:40:14.559Z,11.53
2018-09-09T04:42:43.100Z,12.43
2018-09-09T04:45:11.742Z,14.60
2018-09-09T04:47:40.486Z,15.20
2018-09-09T04:50:09.106Z,17.37
2018-09-09T04:52:37.563Z,16.80
2018-09-09T04:55:06.147Z,14.43
2018-09-09T04:57:34.615Z,15.13
2018-09-09T05:00:03.395Z,12.97
2018-09-09T05:02:31.879Z,16.10
2018-09-09T05:05:00.338Z,14.30
2018-09-09T05:07:28.879Z,17.90
2018-09-09T05:09:57.359Z,13.13
2018-09-09T05:12:25.835Z,13.47
2018-09-09T05:14:54.302Z,11.37
2018-09-09T05:17:22.783Z,12.20
2018-09-09T05:19:51.241Z,11.10
2018-09-09T05:22:19.695Z,16.87
2018-09-09T05:24:48.170Z,12.97
2018-09-09T05:27:16.654Z,12.67
2018-09-09T05:29:45.123Z,11.63
2018-09-09T05:32:14.469Z,11.30
2018-09-09T05:34:42.936Z,15.80
2018-09-09T05:37:11.402Z,17.63
2018-09-09T05:39:39.874Z,19.87
2018-09-09T05:42:08.459Z,13.43
2018-09-09T05:44:36.900Z,13.27
2018-09-09T05:47:05.399Z,14.33
2018-09-09T05:49:33.893Z,13.80
2018-09-09T05:52:02.359Z,10.53
2018-09-09T05:54:30.898Z,10.67
2018-09-09T05:56:59.370Z,12.57
2018-09-09T05:59:27.842Z,10.30
2018-09-09T06:01:57.491Z,11.57
2018-09-09T06:04:25.987Z,9.20
2018-09-09T06:06:54.449Z,9.80
2018-09-09T06:09:22.959Z,11.40
2018-09-09T06:11:51.439Z,11.33
2018-09-09T06:14:19.906Z,11.87
2018-09-09T06:16:48.403Z,11.37
2018-09-09T06:19:16.927Z,9.63
2018-09-09T06:21:45.443Z,9.20
2018-09-09T06:24:13.986Z,8.10
2018-09-09T06:26:42.737Z,12.27
2018-09-09T06:29:11.263Z,11.13
2018-09-09T06:31:39.754Z,8.57
2018-09-09T06:34:08.240Z,8.87
2018-09-09T06:36:36.723Z,8.97
2018-09-09T06:39:08.318Z,17.63
2018-09-09T06:41:36.770Z,8.57
2018-09-09T06:44:05.288Z,8.37
2018-09-09T06:46:33.791Z,11.00
2018-09-09T06:49:02.322Z,9.57
2018-09-09T06:51:30.787Z,9.27
2018-09-09T06:53:59.310Z,11.63
2018-09-09T06:56:27.803Z,9.97
2018-09-09T06:58:56.383Z,11.30
2018-09-09T07:01:24.880Z,7.90
2018-09-09T07:03:53.362Z,8.63
2018-09-09T07:06:21.838Z,8.73
2018-09-09T07:08:50.327Z,10.73
2018-09-09T07:11:18.879Z,13.00
2018-09-09T07:13:47.367Z,11.67
2018-09-09T07:16:15.871Z,12.70
2018-09-09T07:18:44.335Z,12.20
2018-09-09T07:21:12.835Z,13.13
2018-09-09T07:23:41.325Z,17.90
2018-09-09T07:26:09.834Z,11.73
2018-09-09T07:28:38.348Z,13.17
2018-09-09T07:31:06.810Z,10.47
2018-09-09T07:33:35.303Z,14.33
2018-09-09T07:36:03.793Z,8.20
2018-09-09T07:38:32.320Z,8.90
2018-09-09T07:41:00.784Z,7.83
2018-09-09T07:43:29.304Z,10.50
2018-09-09T07:45:57.795Z,9.17
2018-09-09T07:48:26.291Z,9.37
2018-09-09T07:50:54.804Z,10.57
2018-09-09T07:53:23.319Z,9.73
2018-09-09T07:55:51.822Z,7.63
2018-09-09T07:58:20.395Z,7.30
2018-09-09T08:00:48.958Z,10.23
2018-09-09T08:03:17.470Z,8.33
2018-09-09T08:05:45.919Z,12.80
2018-09-09T08:08:14.400Z,7.37
2018-09-09T08:10:42.904Z,7.40
2018-09-09T08:13:11.410Z,7.60
2018-09-09T08:15:39.911Z,6.87
2018-09-09T08:18:08.460Z,7.27
2018-09-09T08:20:36.974Z,8.50
2018-09-09T08:23:05.500Z,7.10
2018-09-09T08:25:34.088Z,6.53
2018-09-09T08:28:02.563Z,6.70
2018-09-09T08:30:31.103Z,6.47
2018-09-09T08:32:59.743Z,6.47
2018-09-09T08:35:28.279Z,7.13
2018-09-09T08:37:56.747Z,6.43
2018-09-09T08:40:25.223Z,6.73
2018-09-09T08:42:53.703Z,5.53
2018-09-09T08:45:22.216Z,6.30
2018-09-09T08:47:50.690Z,6.53
2018-09-09T08:50:19.234Z,7.17
2018-09-09T08:52:47.759Z,6.70
2018-09-09T08:55:16.219Z,8.23
2018-09-09T08:57:44.755Z,6.17
2018-09-09T09:00:13.246Z,6.73
2018-09-09T09:02:41.739Z,6.70
2018-09-09T09:05:10.301Z,6.93
2018-09-09T09:07:38.797Z,6.67
2018-09-09T09:10:07.325Z,6.60
2018-09-09T09:12:35.803Z,7.00
2018-09-09T09:15:04.571Z,7.27
2018-09-09T09:17:33.127Z,8.80
2018-09-09T09:20:01.828Z,6.10
2018-09-09T09:22:30.337Z,7.03
2018-09-09T09:24:58.820Z,6.00
2018-09-09T09:27:27.310Z,8.70
2018-09-09T09:29:56.799Z,6.80
2018-09-09T09:32:25.778Z,6.20
2018-09-09T09:34:55.237Z,6.13
2018-09-09T09:37:24.916Z,7.03
2018-09-09T09:39:54.335Z,6.50
2018-09-09T09:42:23.327Z,6.70
2018-09-09T09:44:51.860Z,7.57
2018-09-09T09:47:20.361Z,7.83
2018-09-09T09:49:48.875Z,5.80
2018-09-09T09:52:17.379Z,8.03
2018-09-09T09:54:45.854Z,6.27
2018-09-09T09:57:14.326Z,6.50
2018-09-09T09:59:42.783Z,6.57
2018-09-09T10:02:11.263Z,6.93
2018-09-09T10:04:39.739Z,6.40
2018-09-09T10:07:08.228Z,6.10
2018-09-09T10:09:36.743Z,6.40
2018-09-09T10:12:05.230Z,7.37
2018-09-09T10:14:33.730Z,6.23
2018-09-09T10:17:02.210Z,7.00
2018-09-09T10:19:30.684Z,6.50
2018-09-09T10:21:59.155Z,6.37
2018-09-09T10:24:27.635Z,6.27
2018-09-09T10:26:56.100Z,6.40
2018-09-09T10:29:24.551Z,6.77
2018-09-09T10:31:53.038Z,7.77
2018-09-09T10:34:21.515Z,6.23
2018-09-09T10:36:50.089Z,7.20
2018-09-09T10:39:18.595Z,8.87
2018-09-09T10:41:47.067Z,6.80
2018-09-09T10:44:15.543Z,6.57
2018-09-09T10:46:44.072Z,6.57
2018-09-09T10:49:12.520Z,7.57
2018-09-09T10:51:40.994Z,7.07
2018-09-09T10:54:09.451Z,7.73
2018-09-09T10:56:37.971Z,6.53
2018-09-09T10:59:06.446Z,6.53
2018-09-09T11:01:34.947Z,6.40
2018-09-09T11:04:03.450Z,7.20
2018-09-09T11:06:31.975Z,7.60
2018-09-09T11:09:00.451Z,6.83
2018-09-09T11:11:28.927Z,6.60
2018-09-09T11:13:57.395Z,6.23
2018-09-09T11:16:25.870Z,6.60
2018-09-09T11:18:54.391Z,7.83
2018-09-09T11:21:22.798Z,8.07
2018-09-09T11:23:51.278Z,7.63
2018-09-09T11:26:19.758Z,6.80
2018-09-09T11:28:48.279Z,6.57
2018-09-09T11:31:16.799Z,6.10
2018-09-09T11:33:45.262Z,6.57
2018-09-09T11:36:14.925Z,7.83
2018-09-09T11:38:43.458Z,6.73
2018-09-09T11:41:11.912Z,5.80
2018-09-09T11:43:40.442Z,6.93
2018-09-09T11:46:08.911Z,7.80
2018-09-09T11:48:37.498Z,7.40
2018-09-09T11:51:06.050Z,6.57
2018-09-09T11:53:34.611Z,6.50
2018-09-09T11:56:03.140Z,6.87
2018-09-09T11:58:31.663Z,6.57
2018-09-09T12:01:00.162Z,6.10
2018-09-09T12:03:28.651Z,6.90
2018-09-09T12:05:57.113Z,6.27
2018-09-09T12:08:25.687Z,6.83
2018-09-09T12:10:54.159Z,6.33
2018-09-09T12:13:22.654Z,5.83
2018-09-09T12:15:51.156Z,5.40
2018-09-09T12:18:19.622Z,6.10
2018-09-09T12:20:48.128Z,6.17
2018-09-09T12:23:16.595Z,6.47
2018-09-09T12:25:45.123Z,6.30
2018-09-09T12:28:13.638Z,7.53
2018-09-09T12:30:42.112Z,6.43
2018-09-09T12:33:10.611Z,5.70
2018-09-09T12:35:39.077Z,5.93
2018-09-09T12:38:07.568Z,7.80
2018-09-09T12:40:36.056Z,9.90
2018-09-09T12:43:09.796Z,5.77
2018-09-09T12:45:43.570Z,7.20
2018-09-09T12:48:17.175Z,7.80
2018-09-09T12:50:45.703Z,6.50
2018-09-09T12:53:14.257Z,6.50
2018-09-09T12:55:42.756Z,6.60
2018-09-09T12:58:11.254Z,7.47
2018-09-09T13:00:39.756Z,6.80
2018-09-09T13:03:08.240Z,7.10
2018-09-09T13:05:36.711Z,4.97
2018-09-09T13:08:05.361Z,6.30
2018-09-09T13:10:33.890Z,5.93
2018-09-09T13:13:07.779Z,7.73
2018-09-09T13:15:36.268Z,5.23
2018-09-09T13:18:04.905Z,8.33
2018-09-09T13:20:33.533Z,5.60
2018-09-09T13:23:02.026Z,8.83
2018-09-09T13:25:30.507Z,6.73
2018-09-09T13:27:59.028Z,6.50
2018-09-09T13:30:27.507Z,6.10
2018-09-09T13:32:55.960Z,6.20
2018-09-09T13:35:24.441Z,5.80
2018-09-09T13:37:52.933Z,6.00
2018-09-09T13:40:21.491Z,6.20
2018-09-09T13:42:50.010Z,6.90
2018-09-09T13:45:18.536Z,6.60
2018-09-09T13:47:47.051Z,6.50
2018-09-09T13:50:15.606Z,6.33
2018-09-09T13:52:44.101Z,6.40
2018-09-09T13:55:12.607Z,11.03
2018-09-09T13:57:41.075Z,7.73
2018-09-09T14:00:09.780Z,5.90
2018-09-09T14:02:38.259Z,6.23
2018-09-09T14:05:06.844Z,5.63
2018-09-09T14:07:35.379Z,6.40
2018-09-09T14:10:04.030Z,6.80
2018-09-09T14:12:32.543Z,6.20
2018-09-09T14:15:01.036Z,5.77
2018-09-09T14:17:29.541Z,5.80
2018-09-09T14:19:58.075Z,5.80
2018-09-09T14:22:26.625Z,6.13
2018-09-09T14:24:55.060Z,5.80
2018-09-09T14:27:23.655Z,6.63
2018-09-09T14:29:52.136Z,6.63
2018-09-09T14:32:20.666Z,6.03
2018-09-09T14:34:49.119Z,6.10
2018-09-09T14:37:17.966Z,7.00
2018-09-09T14:39:46.499Z,5.53
2018-09-09T14:42:14.977Z,6.57
2018-09-09T14:44:43.475Z,5.93
2018-09-09T14:47:11.976Z,6.50
2018-09-09T14:49:40.475Z,10.13
2018-09-09T14:52:08.978Z,6.70
2018-09-09T14:54:37.455Z,6.40
2018-09-09T14:57:05.944Z,7.40
2018-09-09T14:59:34.471Z,6.30
2018-09-09T15:02:02.995Z,7.53
2018-09-09T15:04:31.550Z,5.87
2018-09-09T15:07:00.028Z,6.00
2018-09-09T15:09:28.483Z,6.70
2018-09-09T15:11:56.956Z,6.00
2018-09-09T15:14:25.493Z,9.63
2018-09-09T15:16:53.964Z,6.57
2018-09-09T15:19:22.434Z,6.47
2018-09-09T15:21:51.029Z,6.80
2018-09-09T15:24:19.511Z,8.77
2018-09-09T15:26:47.994Z,5.97
2018-09-09T15:29:16.463Z,8.47
2018-09-09T15:31:44.943Z,5.77
2018-09-09T15:34:13.433Z,6.03
2018-09-09T15:36:41.911Z,6.00
2018-09-09T15:39:10.390Z,6.60
2018-09-09T15:41:38.838Z,7.03
2018-09-09T15:44:07.355Z,7.27
2018-09-09T15:46:35.966Z,7.03
2018-09-09T15:49:04.483Z,7.10
2018-09-09T15:51:32.950Z,6.53
2018-09-09T15:54:01.450Z,7.00
2018-09-09T15:56:29.934Z,5.90
2018-09-09T15:58:59.128Z,6.87
2018-09-09T16:01:27.663Z,7.93
2018-09-09T16:03:56.166Z,7.70
2018-09-09T16:06:24.667Z,6.60
2018-09-09T16:08:53.141Z,9.47
2018-09-09T16:11:21.681Z,7.07
2018-09-09T16:13:50.191Z,6.43
2018-09-09T16:16:18.672Z,6.83
2018-09-09T16:18:47.184Z,6.53
2018-09-09T16:21:15.657Z,6.37
2018-09-09T16:23:44.146Z,6.37
2018-09-09T16:26:12.711Z,6.73
2018-09-09T16:28:41.213Z,6.73
2018-09-09T16:31:09.678Z,7.43
2018-09-09T16:33:38.185Z,8.97
2018-09-09T16:36:06.747Z,7.77
2018-09-09T16:38:35.251Z,7.60
2018-09-09T16:41:03.772Z,8.10
2018-09-09T16:43:32.261Z,6.90
2018-09-09T16:46:00.784Z,10.23
2018-09-09T16:48:29.251Z,7.60
2018-09-09T16:50:57.731Z,7.40
2018-09-09T16:53:26.221Z,8.70
2018-09-09T16:55:54.706Z,7.63
2018-09-09T16:58:23.168Z,6.43
2018-09-09T17:00:51.744Z,8.63
2018-09-09T17:03:20.299Z,8.30
2018-09-09T17:05:48.795Z,7.70
2018-09-09T17:08:17.271Z,8.67
2018-09-09T17:10:45.811Z,10.30
2018-09-09T17:13:14.296Z,9.33
2018-09-09T17:15:42.936Z,8.23
2018-09-09T17:18:11.436Z,9.67
2018-09-09T17:20:39.931Z,8.20
2018-09-09T17:23:08.394Z,7.53
2018-09-09T17:25:36.943Z,8.87
2018-09-09T17:28:05.504Z,9.87
2018-09-09T17:30:34.006Z,9.43
2018-09-09T17:33:02.481Z,8.60
2018-09-09T17:35:31.068Z,8.40
2018-09-09T17:37:59.543Z,8.93
2018-09-09T17:40:28.023Z,7.90
2018-09-09T17:42:56.494Z,7.50
2018-09-09T17:45:24.995Z,10.17
2018-09-09T17:47:53.471Z,14.33
2018-09-09T17:50:21.950Z,9.23
2018-09-09T17:52:50.546Z,15.40
2018-09-09T17:55:19.017Z,11.40
2018-09-09T17:57:47.490Z,10.63
2018-09-09T18:00:15.950Z,11.97
2018-09-09T18:02:44.502Z,13.37
2018-09-09T18:05:12.935Z,10.80
2018-09-09T18:07:41.411Z,8.73
2018-09-09T18:10:09.952Z,10.13
2018-09-09T18:12:38.414Z,11.70
2018-09-09T18:15:07.099Z,8.80
2018-09-09T18:17:35.575Z,11.50
2018-09-09T18:20:04.185Z,8.90
2018-09-09T18:22:32.832Z,10.07
2018-09-09T18:25:01.306Z,8.57
2018-09-09T18:27:29.786Z,13.07
2018-09-09T18:29:58.265Z,9.60
2018-09-09T18:32:26.743Z,9.50
2018-09-09T18:34:55.243Z,11.20
2018-09-09T18:37:23.739Z,11.00
2018-09-09T18:39:52.218Z,17.53
2018-09-09T18:42:20.672Z,13.43
2018-09-09T18:44:49.346Z,12.40
2018-09-09T18:47:17.814Z,13.50
2018-09-09T18:49:46.322Z,11.23
2018-09-09T18:52:14.818Z,13.70
2018-09-09T18:54:43.315Z,14.13
2018-09-09T18:57:11.795Z,14.67
2018-09-09T18:59:40.286Z,18.10
2018-09-09T19:02:08.793Z,13.10
2018-09-09T19:04:37.271Z,14.73
2018-09-09T19:07:05.942Z,13.60
2018-09-09T19:09:35.391Z,16.37
2018-09-09T19:12:03.883Z,13.50
2018-09-09T19:14:32.455Z,15.13
2018-09-09T19:17:00.995Z,13.97
2018-09-09T19:19:29.499Z,13.00
2018-09-09T19:21:58.111Z,18.27
2018-09-09T19:24:26.490Z,17.93
2018-09-09T19:26:54.981Z,15.00
2018-09-09T19:29:23.457Z,14.13
2018-09-09T19:31:51.946Z,14.97
2018-09-09T19:34:20.503Z,12.70
2018-09-09T19:36:48.978Z,14.23
2018-09-09T19:39:17.456Z,21.90
2018-09-09T19:41:45.917Z,18.20
2018-09-09T19:44:14.535Z,16.03
2018-09-09T19:46:42.958Z,14.60
2018-09-09T19:49:11.455Z,14.60
2018-09-09T19:51:39.955Z,14.63
2018-09-09T19:54:08.467Z,13.83
2018-09-09T19:56:36.982Z,12.43
2018-09-09T19:59:05.488Z,18.93
2018-09-09T20:01:34.019Z,15.97
2018-09-09T20:04:02.531Z,13.07
2018-09-09T20:06:31.027Z,12.27
2018-09-09T20:08:59.517Z,9.93
2018-09-09T20:11:27.963Z,14.20
2018-09-09T20:13:56.471Z,15.23
2018-09-09T20:16:24.955Z,12.23
2018-09-09T20:18:53.443Z,12.80
2018-09-09T20:21:21.938Z,13.93
2018-09-09T20:23:50.416Z,10.93
2018-09-09T20:26:18.958Z,11.30
2018-09-09T20:28:47.423Z,11.67
2018-09-09T20:31:15.899Z,11.20
2018-09-09T20:33:44.368Z,11.90
2018-09-09T20:36:12.843Z,11.60
2018-09-09T20:38:41.377Z,10.77
2018-09-09T20:41:09.815Z,11.47
2018-09-09T20:43:38.286Z,14.53
2018-09-09T20:46:06.868Z,10.10
2018-09-09T20:48:35.592Z,11.17
2018-09-09T20:51:04.028Z,11.50
2018-09-09T20:53:32.570Z,10.30
2018-09-09T20:56:01.119Z,10.20
2018-09-09T20:58:29.601Z,9.17
2018-09-09T21:00:58.147Z,9.93
2018-09-09T21:03:26.623Z,14.80
2018-09-09T21:05:55.210Z,14.73
2018-09-09T21:08:23.696Z,10.60
2018-09-09T21:10:52.247Z,12.03
2018-09-09T21:13:20.715Z,11.30
2018-09-09T21:15:49.195Z,13.10
2018-09-09T21:18:17.675Z,17.43
2018-09-09T21:20:46.196Z,10.70
2018-09-09T21:23:14.690Z,9.77
2018-09-09T21:25:43.188Z,10.07
2018-09-09T21:28:11.656Z,16.17
2018-09-09T21:30:40.143Z,14.20
2018-09-09T21:33:08.679Z,10.23
2018-09-09T21:35:37.122Z,10.47
2018-09-09T21:38:05.723Z,10.73
2018-09-09T21:40:34.300Z,9.03
2018-09-09T21:43:02.778Z,11.70
2018-09-09T21:45:31.358Z,11.60
2018-09-09T21:47:59.827Z,9.20
2018-09-09T21:50:28.322Z,11.83
2018-09-09T21:52:56.826Z,15.17
2018-09-09T21:55:25.321Z,10.83
2018-09-09T21:57:53.773Z,10.50
2018-09-09T22:00:22.359Z,12.83
2018-09-09T22:02:50.879Z,11.27
2018-09-09T22:05:19.382Z,13.33
2018-09-09T22:07:47.837Z,11.30
2018-09-09T22:10:16.377Z,11.30
2018-09-09T22:12:44.860Z,10.33
2018-09-09T22:15:13.347Z,10.37
2018-09-09T22:17:41.813Z,10.07
2018-09-09T22:20:10.418Z,14.30
2018-09-09T22:22:38.931Z,13.00
2018-09-09T22:25:07.409Z,12.10
2018-09-09T22:27:35.928Z,11.53
2018-09-09T22:30:04.508Z,13.93
2018-09-09T22:32:32.983Z,10.93
2018-09-09T22:35:01.474Z,11.90
2018-09-09T22:37:29.942Z,10.77
2018-09-09T22:39:58.431Z,11.43
2018-09-09T22:42:26.904Z,14.30
2018-09-09T22:44:55.408Z,12.20
2018-09-09T22:47:23.908Z,12.00
2018-09-09T22:49:52.462Z,12.50
2018-09-09T22:52:20.971Z,15.90
2018-09-09T22:54:49.446Z,19.37
2018-09-09T22:57:17.959Z,11.83
2018-09-09T22:59:46.435Z,13.10
2018-09-09T23:02:14.932Z,12.70
2018-09-09T23:04:43.416Z,15.13
2018-09-09T23:07:11.898Z,15.53
2018-09-09T23:09:40.354Z,13.30
2018-09-09T23:12:08.864Z,14.00
2018-09-09T23:14:37.388Z,10.87
2018-09-09T23:17:05.871Z,10.90
2018-09-09T23:19:34.415Z,14.90
2018-09-09T23:22:02.915Z,13.10
2018-09-09T23:24:31.378Z,10.83
2018-09-09T23:26:59.869Z,11.10
2018-09-09T23:29:28.335Z,12.63
2018-09-09T23:31:56.811Z,16.93
2018-09-09T23:34:25.259Z,10.93
2018-09-09T23:36:53.744Z,12.23
2018-09-09T23:39:22.227Z,12.30
2018-09-09T23:41:50.739Z,11.30
2018-09-09T23:44:19.208Z,11.10
2018-09-09T23:46:47.723Z,12.73
2018-09-09T23:49:16.255Z,15.27
2018-09-09T23:51:44.764Z,11.80
2018-09-09T23:54:13.235Z,12.90
2018-09-09T23:56:41.767Z,14.97
2018-09-09T23:59:10.291Z,15.03
